Time;durP1;ratioP1;P1;durP2;ratioP2;P2;SDS_P1;SDS_P2;PMS_P1;PMS_P2;Temp;Humidity;BMP_temperature;BMP_pressure;BME280_temperature;BME280_humidity;BME280_pressure;Samples;Min_cycle;Max_cycle;Signal;HPM_P1;HPM_P2
2024/01/30 00:00:34;;;;;;;18.95;12.40;;;;;;;7.23;100.00;102517.88;5022677;28;20045;-68
2024/01/30 00:03:01;;;;;;;17.05;11.98;;;;;;;7.20;100.00;102517.88;5037991;28;20073;-68
2024/01/30 00:05:28;;;;;;;17.48;13.05;;;;;;;7.18;100.00;102522.22;5022285;28;20120;-69
2024/01/30 00:07:55;;;;;;;17.08;11.75;;;;;;;7.13;100.00;102527.41;5021931;28;20137;-68
2024/01/30 00:10:23;;;;;;;17.38;12.43;;;;;;;7.09;100.00;102517.75;5027866;28;20048;-68
2024/01/30 00:12:50;;;;;;;17.70;11.65;;;;;;;7.09;100.00;102530.00;5028979;28;20054;-68
2024/01/30 00:15:18;;;;;;;19.17;12.60;;;;;;;7.07;100.00;102521.22;5027459;28;20053;-68
2024/01/30 00:17:45;;;;;;;18.10;11.68;;;;;;;7.05;100.00;102517.69;5029209;28;20510;-68
2024/01/30 00:20:12;;;;;;;18.67;12.68;;;;;;;7.03;100.00;102517.69;5031396;28;20045;-68
2024/01/30 00:22:40;;;;;;;21.17;12.60;;;;;;;7.03;100.00;102519.41;5043351;28;20065;-68
2024/01/30 00:25:07;;;;;;;16.55;11.77;;;;;;;7.01;100.00;102518.53;5031346;28;20060;-68
2024/01/30 00:27:34;;;;;;;20.15;12.25;;;;;;;7.01;100.00;102522.03;5028647;28;20065;-68
2024/01/30 00:30:02;;;;;;;16.85;11.20;;;;;;;7.01;100.00;102524.66;5031294;28;20047;-68
2024/01/30 00:32:29;;;;;;;17.58;11.68;;;;;;;7.01;100.00;102519.41;5029718;28;20132;-69
2024/01/30 00:34:56;;;;;;;19.15;12.35;;;;;;;7.02;100.00;102517.69;5031087;28;20041;-68
2024/01/30 00:37:24;;;;;;;16.63;11.45;;;;;;;7.01;100.00;102524.66;5030158;28;20046;-68
2024/01/30 00:39:51;;;;;;;15.15;11.43;;;;;;;6.99;100.00;102516.78;5030604;28;20041;-67
2024/01/30 00:42:19;;;;;;;18.13;11.25;;;;;;;6.98;100.00;102520.25;5030212;28;20067;-68
2024/01/30 00:44:46;;;;;;;16.88;11.25;;;;;;;6.97;100.00;102510.63;5029987;28;20048;-68
2024/01/30 00:47:13;;;;;;;16.60;11.07;;;;;;;6.98;100.00;102516.75;5029736;28;20475;-68
2024/01/30 00:49:40;;;;;;;16.35;10.95;;;;;;;6.96;100.00;102515.88;5030653;28;20528;-68
2024/01/30 00:52:07;;;;;;;15.68;10.73;;;;;;;6.95;100.00;102514.97;5011928;28;20497;-68
2024/01/30 00:54:34;;;;;;;16.60;10.93;;;;;;;6.95;100.00;102508.88;5029643;28;20124;-67
2024/01/30 00:57:02;;;;;;;16.85;10.73;;;;;;;6.93;100.00;102507.97;5029008;28;20069;-68
2024/01/30 00:59:29;;;;;;;17.70;11.00;;;;;;;6.93;100.00;102500.97;5029794;28;20049;-68
2024/01/30 01:01:56;;;;;;;14.93;10.40;;;;;;;6.91;100.00;102510.56;5030712;28;20037;-68
2024/01/30 01:04:23;;;;;;;15.10;9.95;;;;;;;6.92;100.00;102508.81;5029044;28;20524;-68
2024/01/30 01:06:50;;;;;;;16.98;10.40;;;;;;;6.92;100.00;102509.69;5030479;28;20059;-68
2024/01/30 01:09:17;;;;;;;15.57;9.98;;;;;;;6.92;100.00;102511.44;5030491;28;20555;-68
2024/01/30 01:11:45;;;;;;;14.25;10.50;;;;;;;6.91;100.00;102505.31;5030217;28;20075;-68
2024/01/30 01:14:12;;;;;;;15.75;10.63;;;;;;;6.91;100.00;102507.94;5029459;28;20064;-68
2024/01/30 01:16:39;;;;;;;14.70;10.57;;;;;;;6.92;100.00;102511.44;5030182;28;20041;-68
2024/01/30 01:19:06;;;;;;;17.80;10.77;;;;;;;6.89;100.00;102498.28;5028403;28;20542;-69
2024/01/30 01:21:33;;;;;;;14.32;10.63;;;;;;;6.86;100.00;102506.13;5030036;28;20038;-69
2024/01/30 01:24:00;;;;;;;21.77;10.55;;;;;;;6.85;100.00;102507.84;5029893;28;20060;-68
2024/01/30 01:26:27;;;;;;;16.35;10.27;;;;;;;6.83;100.00;102499.97;5011965;28;20556;-68
2024/01/30 01:28:55;;;;;;;15.05;10.15;;;;;;;6.83;100.00;102493.84;5028747;28;20100;-67
2024/01/30 01:31:24;;;;;;;14.88;9.77;;;;;;;6.81;100.00;102501.69;5029623;28;20061;-68
2024/01/30 01:33:52;;;;;;;15.50;10.35;;;;;;;6.83;100.00;102491.22;5037319;28;20049;-68
2024/01/30 01:36:19;;;;;;;14.05;9.90;;;;;;;6.82;100.00;102487.75;5048382;28;20056;-68
2024/01/30 01:38:46;;;;;;;16.27;10.40;;;;;;;6.82;100.00;102486.84;5029653;28;20513;-68
2024/01/30 01:41:13;;;;;;;15.90;9.95;;;;;;;6.83;100.00;102488.59;5027777;28;20413;-68
2024/01/30 01:43:40;;;;;;;14.52;9.98;;;;;;;6.82;100.00;102482.50;5027876;28;20216;-68
2024/01/30 01:46:08;;;;;;;13.07;9.93;;;;;;;6.83;100.00;102480.75;5027283;28;20084;-68
2024/01/30 01:48:37;;;;;;;14.65;10.40;;;;;;;6.85;100.00;102486.88;5028544;28;20071;-68
2024/01/30 01:51:05;;;;;;;17.10;9.73;;;;;;;6.89;100.00;102478.22;5052534;28;20037;-69
2024/01/30 01:53:32;;;;;;;19.58;10.48;;;;;;;6.93;100.00;102477.34;5029243;28;20053;-69
2024/01/30 01:55:59;;;;;;;17.63;10.00;;;;;;;6.98;100.00;102483.53;5027887;28;20099;-69
2024/01/30 01:58:29;;;;;;;13.32;9.93;;;;;;;6.99;100.00;102476.53;5027135;28;20516;-69
2024/01/30 02:00:58;;;;;;;14.70;9.90;;;;;;;7.02;100.00;102473.09;5032762;28;20488;-69
2024/01/30 02:03:25;;;;;;;14.57;10.35;;;;;;;7.05;100.00;102470.50;5023153;28;20050;-69
2024/01/30 02:05:55;;;;;;;14.48;9.32;;;;;;;7.09;100.00;102470.53;5028867;28;20033;-69
2024/01/30 02:08:24;;;;;;;14.13;9.70;;;;;;;7.13;100.00;102463.56;5029374;28;20049;-69
2024/01/30 02:10:51;;;;;;;16.58;10.20;;;;;;;7.16;100.00;102468.84;5033274;28;20563;-67
2024/01/30 02:13:18;;;;;;;15.43;9.68;;;;;;;7.19;100.00;102468.00;5034276;28;20042;-68
2024/01/30 02:15:52;;;;;;;17.63;9.77;;;;;;;7.23;100.00;102469.81;5028197;28;20512;-68
2024/01/30 02:18:21;;;;;;;14.55;9.13;;;;;;;7.21;100.00;102464.56;5029144;28;20053;-68
2024/01/30 02:20:48;;;;;;;13.85;9.40;;;;;;;7.23;100.00;102469.81;5040492;28;20605;-67
2024/01/30 02:23:16;;;;;;;15.30;9.40;;;;;;;7.23;100.00;102464.56;5023056;28;20045;-67
2024/01/30 02:25:46;;;;;;;14.95;9.82;;;;;;;7.27;100.00;102461.13;5028237;28;20147;-67
2024/01/30 02:28:13;;;;;;;15.05;9.32;;;;;;;7.28;100.00;102466.38;5026868;28;20052;-68
2024/01/30 02:30:43;;;;;;;14.38;9.00;;;;;;;7.30;100.00;102463.75;5027042;28;20042;-67
2024/01/30 02:33:10;;;;;;;15.88;9.90;;;;;;;7.31;100.00;102460.25;5028563;28;20502;-67
2024/01/30 02:35:37;;;;;;;17.25;10.15;;;;;;;7.31;100.00;102460.25;5026534;28;20051;-68
2024/01/30 02:38:05;;;;;;;14.05;9.65;;;;;;;7.32;100.00;102462.03;5027989;28;20069;-67
2024/01/30 02:40:32;;;;;;;13.35;9.35;;;;;;;7.30;100.00;102459.38;5024711;28;20050;-67
2024/01/30 02:43:02;;;;;;;14.63;9.52;;;;;;;7.28;100.00;102462.84;5047104;28;20052;-67
2024/01/30 02:45:29;;;;;;;14.23;9.57;;;;;;;7.27;100.00;102458.50;5024765;28;20046;-67
2024/01/30 02:47:56;;;;;;;15.23;9.23;;;;;;;7.22;100.00;102458.44;5027368;28;20125;-67
2024/01/30 02:50:23;;;;;;;13.70;9.32;;;;;;;7.19;100.00;102453.16;5027758;28;20249;-67
2024/01/30 02:52:50;;;;;;;15.20;9.85;;;;;;;7.15;100.00;102457.50;5028597;28;20202;-67
2024/01/30 02:55:18;;;;;;;15.15;9.45;;;;;;;7.12;100.00;102451.34;5028091;28;20638;-67
2024/01/30 02:57:45;;;;;;;16.77;9.70;;;;;;;7.09;100.00;102432.94;5021469;28;20504;-67
2024/01/30 03:00:14;;;;;;;13.93;9.55;;;;;;;7.05;100.00;102439.03;5028581;28;20053;-67
2024/01/30 03:02:41;;;;;;;16.63;10.15;;;;;;;7.03;100.00;102443.38;5022720;28;20469;-67
2024/01/30 03:05:08;;;;;;;18.50;10.75;;;;;;;6.99;100.00;102443.34;5025468;28;20076;-68
2024/01/30 03:07:35;;;;;;;16.77;9.88;;;;;;;6.98;100.00;102438.06;5037879;28;20045;-68
2024/01/30 03:10:05;;;;;;;16.42;9.77;;;;;;;6.96;100.00;102438.06;5023586;28;20089;-68
2024/01/30 03:12:33;;;;;;;14.27;9.60;;;;;;;6.95;100.00;102435.44;5022602;28;20493;-68
2024/01/30 03:15:00;;;;;;;14.43;9.43;;;;;;;6.93;100.00;102439.78;5023880;28;20059;-68
2024/01/30 03:17:27;;;;;;;13.38;9.65;;;;;;;6.91;100.00;102428.41;5023498;28;20136;-67
2024/01/30 03:19:54;;;;;;;13.65;9.48;;;;;;;6.90;100.00;102424.00;5027236;28;20042;-67
2024/01/30 03:22:22;;;;;;;16.80;10.60;;;;;;;6.90;100.00;102429.25;5027666;28;20087;-67
2024/01/30 03:24:49;;;;;;;16.73;10.23;;;;;;;6.90;100.00;102427.53;5027781;28;20056;-67
2024/01/30 03:27:16;;;;;;;14.80;9.70;;;;;;;6.90;100.00;102429.25;5027100;28;20152;-67
2024/01/30 03:29:43;;;;;;;14.70;9.38;;;;;;;6.90;100.00;102424.00;5024865;28;20618;-67
2024/01/30 03:32:10;;;;;;;18.13;10.48;;;;;;;6.92;100.00;102423.16;5025560;28;20041;-67
2024/01/30 03:34:38;;;;;;;15.43;10.00;;;;;;;6.93;100.00;102421.44;5027379;28;20050;-66
2024/01/30 03:37:05;;;;;;;16.65;9.80;;;;;;;6.93;100.00;102424.91;5026589;28;20057;-67
2024/01/30 03:39:32;;;;;;;13.85;9.25;;;;;;;6.93;100.00;102417.06;5027418;28;20044;-67
2024/01/30 03:42:00;;;;;;;21.17;10.38;;;;;;;6.93;100.00;102409.19;5020015;28;20259;-67
2024/01/30 03:44:27;;;;;;;17.25;9.65;;;;;;;6.95;100.00;102411.84;5037170;28;20115;-69
2024/01/30 03:46:54;;;;;;;15.48;9.35;;;;;;;6.96;100.00;102405.75;5031114;28;20055;-69
2024/01/30 03:49:21;;;;;;;13.98;9.32;;;;;;;6.98;100.00;102409.22;5028813;28;20206;-69
2024/01/30 03:51:48;;;;;;;13.73;9.35;;;;;;;7.01;100.00;102411.03;5027854;28;20060;-69
2024/01/30 03:54:16;;;;;;;14.68;9.05;;;;;;;7.02;100.00;102408.41;5029398;28;20663;-69
2024/01/30 03:56:43;;;;;;;14.30;9.65;;;;;;;7.04;100.00;102408.41;5031241;28;20042;-67
2024/01/30 03:59:10;;;;;;;16.02;9.30;;;;;;;7.04;100.00;102398.81;5029382;28;20544;-69
2024/01/30 04:01:37;;;;;;;13.05;9.00;;;;;;;7.07;100.00;102395.34;5022605;28;20124;-68
2024/01/30 04:04:04;;;;;;;14.20;9.07;;;;;;;7.09;100.00;102394.47;5030250;28;20052;-68
2024/01/30 04:06:31;;;;;;;12.80;9.48;;;;;;;7.11;100.00;102390.13;5030886;28;20533;-67
2024/01/30 04:08:58;;;;;;;14.35;8.77;;;;;;;7.13;100.00;102395.38;5009853;28;20072;-67
2024/01/30 04:11:25;;;;;;;16.13;9.35;;;;;;;7.15;100.00;102391.94;5013853;28;20569;-67
2024/01/30 04:13:52;;;;;;;12.13;9.00;;;;;;;7.20;100.00;102398.94;5029006;28;20072;-66
2024/01/30 04:16:24;;;;;;;13.27;8.50;;;;;;;7.20;100.00;102401.56;5030890;28;20124;-66
2024/01/30 04:18:52;;;;;;;25.17;10.73;;;;;;;7.20;100.00;102399.84;5032144;28;20053;-68
2024/01/30 04:21:21;;;;;;;14.68;8.85;;;;;;;7.22;100.00;102413.84;5030961;28;20063;-67
2024/01/30 04:23:51;;;;;;;15.27;9.30;;;;;;;7.20;100.00;102419.94;5028877;28;20464;-66
2024/01/30 04:26:18;;;;;;;11.70;8.80;;;;;;;7.19;100.00;102415.53;5030636;28;20049;-67
2024/01/30 04:28:45;;;;;;;13.70;9.05;;;;;;;7.19;100.00;102423.41;5030789;28;20131;-66
2024/01/30 04:31:12;;;;;;;15.77;9.45;;;;;;;7.17;100.00;102423.41;5029273;28;20124;-66
2024/01/30 04:33:40;;;;;;;15.45;9.13;;;;;;;7.13;100.00;102419.88;5030645;28;20548;-66
2024/01/30 04:36:10;;;;;;;17.13;9.52;;;;;;;7.10;100.00;102417.22;5030760;28;20037;-67
2024/01/30 04:38:39;;;;;;;14.68;9.10;;;;;;;7.07;100.00;102411.94;5061762;28;20050;-67
2024/01/30 04:41:06;;;;;;;14.43;9.30;;;;;;;7.04;100.00;102408.41;5030626;28;20072;-67
2024/01/30 04:43:33;;;;;;;13.50;9.02;;;;;;;7.02;100.00;102415.41;5044896;28;20045;-68
2024/01/30 04:46:00;;;;;;;14.27;8.65;;;;;;;6.98;100.00;102399.63;5029593;28;20081;-68
2024/01/30 04:48:27;;;;;;;12.75;8.95;;;;;;;6.97;100.00;102402.22;5030336;28;20073;-68
2024/01/30 04:50:55;;;;;;;12.80;9.02;;;;;;;6.96;100.00;102396.13;5030058;28;20096;-67
2024/01/30 04:53:23;;;;;;;13.27;8.50;;;;;;;6.97;100.00;102387.38;5028986;28;20044;-67
2024/01/30 04:55:50;;;;;;;13.45;9.20;;;;;;;6.98;100.00;102386.53;5028756;28;20064;-67
2024/01/30 04:58:17;;;;;;;12.95;9.45;;;;;;;7.01;100.00;102383.03;5030776;28;20501;-67
2024/01/30 05:00:46;;;;;;;16.40;9.18;;;;;;;7.06;100.00;102377.84;5026281;28;20452;-67
2024/01/30 05:03:13;;;;;;;19.35;9.05;;;;;;;7.09;100.00;102378.75;5029267;28;20048;-68
2024/01/30 05:05:40;;;;;;;12.82;8.98;;;;;;;7.13;100.00;102387.50;5030923;28;20053;-69
2024/01/30 05:08:07;;;;;;;14.18;8.45;;;;;;;7.17;100.00;102389.31;5029758;28;20052;-69
2024/01/30 05:10:35;;;;;;;15.40;9.05;;;;;;;7.20;100.00;102381.47;5029807;28;20107;-68
2024/01/30 05:13:02;;;;;;;13.07;8.40;;;;;;;7.23;100.00;102383.25;5028283;28;20452;-68
2024/01/30 05:15:29;;;;;;;13.23;8.70;;;;;;;7.25;100.00;102381.50;5027872;28;20041;-66
2024/01/30 05:17:56;;;;;;;13.50;8.63;;;;;;;7.27;100.00;102382.41;5029809;28;20149;-68
2024/01/30 05:20:23;;;;;;;13.02;9.05;;;;;;;7.29;100.00;102375.41;5029424;28;20061;-68
2024/01/30 05:22:50;;;;;;;12.38;8.63;;;;;;;7.29;100.00;102373.69;5029572;28;20112;-69
2024/01/30 05:25:17;;;;;;;12.30;8.40;;;;;;;7.30;100.00;102372.81;5029490;28;20417;-67
2024/01/30 05:27:45;;;;;;;13.13;8.32;;;;;;;7.32;100.00;102371.94;5029117;28;20057;-70
2024/01/30 05:30:12;;;;;;;12.70;8.60;;;;;;;7.32;100.00;102366.72;5035477;28;20045;-69
2024/01/30 05:32:40;;;;;;;12.52;8.75;;;;;;;7.34;100.00;102370.19;5028138;28;20034;-68
2024/01/30 05:35:10;;;;;;;11.13;7.95;;;;;;;7.35;100.00;102371.94;5029974;28;20069;-68
2024/01/30 05:37:37;;;;;;;13.88;8.93;;;;;;;7.35;100.00;102364.97;5057242;28;20077;-68
2024/01/30 05:40:05;;;;;;;12.07;8.20;;;;;;;7.38;100.00;102379.84;5027359;28;20065;-67
2024/01/30 05:42:32;;;;;;;12.85;7.75;;;;;;;7.40;100.00;102381.63;5025668;28;20430;-70
2024/01/30 05:44:59;;;;;;;11.80;8.20;;;;;;;7.44;100.00;102385.13;5027627;28;20069;-70
2024/01/30 05:47:26;;;;;;;17.65;8.25;;;;;;;7.51;100.00;102386.97;5028962;28;20057;-70
2024/01/30 05:49:53;;;;;;;14.88;8.43;;;;;;;7.64;100.00;102392.28;5023085;28;20444;-70
2024/01/30 05:52:20;;;;;;;12.00;8.23;;;;;;;7.71;100.00;102394.97;5024256;28;20038;-70
2024/01/30 05:54:48;;;;;;;16.00;8.25;;;;;;;7.76;100.00;102389.75;5028156;28;20049;-71
2024/01/30 05:57:15;;;;;;;13.73;8.18;;;;;;;7.79;100.00;102387.13;5025787;28;20045;-70
2024/01/30 05:59:44;;;;;;;11.70;8.18;;;;;;;7.84;100.00;102387.16;5023431;28;20067;-70
2024/01/30 06:02:11;;;;;;;12.75;7.90;;;;;;;7.87;100.00;102390.69;5029005;28;20055;-70
2024/01/30 06:04:38;;;;;;;10.82;8.00;;;;;;;7.91;100.00;102395.09;5028119;28;20120;-70
2024/01/30 06:07:06;;;;;;;11.75;7.65;;;;;;;7.93;100.00;102392.47;5040106;28;20063;-70
2024/01/30 06:09:33;;;;;;;10.30;7.55;;;;;;;7.94;100.00;102388.97;5028929;28;20124;-70
2024/01/30 06:12:00;;;;;;;12.55;7.80;;;;;;;7.94;100.00;102388.97;5029736;28;20111;-69
2024/01/30 06:14:27;;;;;;;13.85;8.32;;;;;;;7.91;100.00;102388.94;5027636;28;20136;-68
2024/01/30 06:16:55;;;;;;;12.15;7.40;;;;;;;7.87;100.00;102400.31;5023125;28;20053;-68
2024/01/30 06:19:22;;;;;;;14.23;8.00;;;;;;;7.82;100.00;102388.91;5029214;28;20574;-68
2024/01/30 06:21:49;;;;;;;12.48;7.40;;;;;;;7.79;100.00;102389.75;5024859;28;20045;-68
2024/01/30 06:24:17;;;;;;;14.07;7.90;;;;;;;7.78;100.00;102398.50;5027891;28;20041;-68
2024/01/30 06:26:44;;;;;;;12.15;8.85;;;;;;;7.77;100.00;102387.16;5026635;28;20111;-68
2024/01/30 06:29:11;;;;;;;12.43;8.20;;;;;;;7.76;100.00;102381.88;5035025;28;20120;-67
2024/01/30 06:31:42;;;;;;;13.35;8.32;;;;;;;7.75;100.00;102382.72;5026578;28;20103;-68
2024/01/30 06:34:11;;;;;;;12.95;8.25;;;;;;;7.74;100.00;102371.34;5025696;28;20499;-68
2024/01/30 06:36:38;;;;;;;15.02;8.35;;;;;;;7.74;100.00;102383.59;5026566;28;20056;-68
2024/01/30 06:39:07;;;;;;;12.65;8.80;;;;;;;7.75;100.00;102378.38;5026371;28;20561;-68
2024/01/30 06:41:34;;;;;;;15.57;9.02;;;;;;;7.75;100.00;102383.63;5030865;28;20045;-68
2024/01/30 06:44:04;;;;;;;11.68;7.82;;;;;;;7.77;100.00;102384.50;5024188;28;20514;-68
2024/01/30 06:46:31;;;;;;;16.52;8.13;;;;;;;7.80;100.00;102388.00;5025559;28;20111;-68
2024/01/30 06:48:58;;;;;;;13.02;7.40;;;;;;;7.82;100.00;102391.53;5027965;28;20037;-68
2024/01/30 06:51:25;;;;;;;10.80;7.28;;;;;;;7.83;100.00;102399.44;5026534;28;20066;-68
2024/01/30 06:53:52;;;;;;;9.68;7.88;;;;;;;7.84;100.00;102392.41;5042902;28;20045;-68
2024/01/30 06:56:20;;;;;;;11.13;7.88;;;;;;;7.85;100.00;102399.44;5024201;28;20456;-67
2024/01/30 06:58:49;;;;;;;14.15;8.63;;;;;;;7.85;100.00;102402.06;5027798;28;20056;-67
2024/01/30 07:01:17;;;;;;;11.60;7.88;;;;;;;7.86;100.00;102401.19;5021666;28;20046;-68
2024/01/30 07:03:44;;;;;;;10.80;7.38;;;;;;;7.86;100.00;102393.31;5017015;28;20497;-67
2024/01/30 07:06:11;;;;;;;13.00;8.32;;;;;;;7.87;100.00;102398.56;5038702;28;20065;-68
2024/01/30 07:08:39;;;;;;;13.93;8.98;;;;;;;7.88;100.00;102407.34;5039971;28;20125;-67
2024/01/30 07:11:07;;;;;;;14.10;8.75;;;;;;;7.88;100.00;102412.59;5017884;28;20042;-67
2024/01/30 07:13:35;;;;;;;11.32;8.60;;;;;;;7.90;100.00;102410.81;5026980;28;20065;-68
2024/01/30 07:16:02;;;;;;;11.88;7.80;;;;;;;7.90;100.00;102421.31;5026796;28;20061;-68
2024/01/30 07:18:29;;;;;;;14.93;8.30;;;;;;;7.91;100.00;102415.22;5027930;28;20103;-68
2024/01/30 07:20:57;;;;;;;14.05;9.00;;;;;;;7.87;100.00;102419.56;5027334;28;20082;-68
2024/01/30 07:23:24;;;;;;;12.18;8.13;;;;;;;7.88;100.00;102423.09;5027761;28;20563;-68
2024/01/30 07:25:51;;;;;;;11.75;8.52;;;;;;;7.88;100.00;102417.84;5028097;28;20554;-68
2024/01/30 07:28:20;;;;;;;10.45;8.05;;;;;;;7.88;100.00;102431.84;5027658;28;20091;-68
2024/01/30 07:30:48;;;;;;;10.65;8.05;;;;;;;7.88;100.00;102426.56;5027262;28;20615;-68
2024/01/30 07:33:15;;;;;;;9.73;7.55;;;;;;;7.89;100.00;102437.94;5026848;28;20545;-68
2024/01/30 07:35:45;;;;;;;12.98;8.07;;;;;;;7.90;100.00;102439.72;5025799;28;20099;-68
2024/01/30 07:38:13;;;;;;;13.90;8.13;;;;;;;7.93;100.00;102445.00;5043059;28;20056;-67
2024/01/30 07:40:40;;;;;;;11.95;8.15;;;;;;;7.93;100.00;102455.50;5027307;28;20049;-68
2024/01/30 07:43:08;;;;;;;13.13;8.32;;;;;;;7.93;100.00;102439.75;5028017;28;20054;-68
2024/01/30 07:45:35;;;;;;;12.40;8.10;;;;;;;7.93;100.00;102447.63;5027803;28;20053;-68
2024/01/30 07:48:02;;;;;;;13.02;8.27;;;;;;;7.94;100.00;102446.75;5027193;28;20047;-68
2024/01/30 07:50:30;;;;;;;12.43;8.50;;;;;;;7.96;100.00;102449.38;5027862;28;20495;-68
2024/01/30 07:52:59;;;;;;;23.60;8.00;;;;;;;7.97;100.00;102453.75;5026562;28;20176;-68
2024/01/30 07:55:30;;;;;;;12.35;7.97;;;;;;;7.99;100.00;102454.66;5027525;28;20045;-68
2024/01/30 07:57:58;;;;;;;12.43;7.75;;;;;;;8.00;100.00;102441.53;5026017;28;20045;-67
2024/01/30 08:00:26;;;;;;;14.00;8.35;;;;;;;8.01;100.00;102445.03;5027999;28;20125;-68
2024/01/30 08:02:57;;;;;;;11.93;7.93;;;;;;;8.04;100.00;102445.94;5026702;28;20114;-68
2024/01/30 08:05:24;;;;;;;10.85;7.75;;;;;;;8.07;100.00;102455.56;5009546;28;20056;-68
2024/01/30 08:07:51;;;;;;;11.77;8.00;;;;;;;8.09;100.00;102457.34;5027496;28;20091;-68
2024/01/30 08:10:20;;;;;;;16.33;8.05;;;;;;;8.13;100.00;102466.13;5026111;28;20073;-68
2024/01/30 08:12:47;;;;;;;16.80;8.05;;;;;;;8.15;100.00;102466.13;5009129;28;20045;-67
2024/01/30 08:15:14;;;;;;;12.23;7.82;;;;;;;8.20;100.00;102474.91;5026566;28;20042;-67
2024/01/30 08:17:41;;;;;;;12.13;8.07;;;;;;;8.25;100.00;102462.69;5026301;28;20041;-67
2024/01/30 08:20:11;;;;;;;12.77;7.88;;;;;;;8.29;100.00;102464.44;5027945;28;20053;-68
2024/01/30 08:22:40;;;;;;;12.02;7.85;;;;;;;8.32;100.00;102469.72;5025652;28;20121;-68
2024/01/30 08:25:08;;;;;;;11.07;8.00;;;;;;;8.38;100.00;102476.78;5026018;28;20116;-67
2024/01/30 08:27:38;;;;;;;11.48;7.68;;;;;;;8.44;100.00;102483.81;5027044;28;20122;-67
2024/01/30 08:30:08;;;;;;;13.43;7.55;;;;;;;8.51;100.00;102485.63;5044382;28;20041;-68
2024/01/30 08:32:36;;;;;;;12.68;7.63;;;;;;;8.59;100.00;102478.66;5028374;28;20037;-68
2024/01/30 08:35:03;;;;;;;11.18;7.43;;;;;;;8.65;100.00;102465.53;5013720;28;20099;-67
2024/01/30 08:37:31;;;;;;;9.93;6.95;;;;;;;8.75;100.00;102473.44;5046222;28;20076;-68
2024/01/30 08:39:58;;;;;;;11.13;7.55;;;;;;;8.84;100.00;102474.38;5030450;28;20045;-67
2024/01/30 08:42:25;;;;;;;10.95;7.47;;;;;;;8.96;100.00;102475.25;5031206;28;20048;-67
2024/01/30 08:44:53;;;;;;;10.45;7.40;;;;;;;9.06;100.00;102482.28;5030430;28;20488;-68
2024/01/30 08:47:20;;;;;;;10.95;7.70;;;;;;;9.13;100.00;102478.81;5030114;28;20049;-68
2024/01/30 08:49:47;;;;;;;13.45;7.53;;;;;;;9.21;100.00;102470.91;5030555;28;20049;-68
2024/01/30 08:52:15;;;;;;;10.13;6.80;;;;;;;9.28;100.00;102480.59;5041972;28;20395;-68
2024/01/30 08:54:42;;;;;;;12.55;7.45;;;;;;;9.33;100.00;102477.97;5015032;28;20037;-68
2024/01/30 08:57:09;;;;;;;9.88;7.03;;;;;;;9.40;100.00;102477.09;5028213;28;20056;-67
2024/01/30 08:59:36;;;;;;;10.27;6.95;;;;;;;9.46;100.00;102482.34;5029363;28;20041;-67
2024/01/30 09:02:04;;;;;;;13.25;6.97;;;;;;;9.55;100.00;102476.22;5028795;28;20100;-68
2024/01/30 09:04:39;;;;;;;9.23;6.70;;;;;;;9.63;100.00;102470.97;5029572;28;20057;-69
2024/01/30 09:07:09;;;;;;;10.15;7.07;;;;;;;9.71;100.00;102473.59;5031226;28;20049;-68
2024/01/30 09:09:41;;;;;;;13.63;8.93;;;;;;;9.77;100.00;102468.31;5029043;28;20592;-68
2024/01/30 09:12:09;;;;;;;12.18;8.02;;;;;;;9.82;100.00;102465.69;5044040;28;20053;-68
2024/01/30 09:14:38;;;;;;;13.55;8.32;;;;;;;9.85;100.00;102471.81;5028873;28;20091;-68
2024/01/30 09:17:05;;;;;;;13.70;8.18;;;;;;;9.89;100.00;102470.03;5029578;28;20053;-68
2024/01/30 09:19:32;;;;;;;10.90;7.60;;;;;;;9.92;100.00;102477.97;5030200;28;20054;-68
2024/01/30 09:22:00;;;;;;;11.73;7.47;;;;;;;9.95;100.00;102476.19;5028244;28;20045;-68
2024/01/30 09:24:28;;;;;;;13.27;8.43;;;;;;;9.98;100.00;102477.94;5029362;28;20091;-67
2024/01/30 09:26:55;;;;;;;10.45;7.88;;;;;;;10.00;100.00;102473.53;5029656;28;20525;-68
2024/01/30 09:29:22;;;;;;;14.35;8.52;;;;;;;10.05;100.00;102478.81;5029713;28;20053;-68
2024/01/30 09:31:50;;;;;;;10.13;7.22;;;;;;;10.09;100.00;102491.09;5028145;28;20115;-68
2024/01/30 09:34:17;;;;;;;11.82;7.68;;;;;;;10.12;100.00;102485.84;5028953;28;20038;-67
2024/01/30 09:36:44;;;;;;;18.02;7.85;;;;;;;10.18;100.00;102485.81;5028777;28;20076;-68
2024/01/30 09:39:11;;;;;;;15.75;8.00;;;;;;;10.23;100.00;102491.06;5029672;28;20096;-68
2024/01/30 09:41:58;;;;;;;11.10;7.50;;;;;;;10.27;100.00;102487.56;5029711;28;20041;-68
2024/01/30 09:44:28;;;;;;;13.25;7.78;;;;;;;10.34;100.00;102498.94;5029571;28;20053;-68
2024/01/30 09:46:58;;;;;;;16.17;8.23;;;;;;;10.39;100.00;102494.59;5029125;28;20045;-68
2024/01/30 09:49:27;;;;;;;12.48;7.43;;;;;;;10.47;100.00;102492.78;5027991;28;20132;-68
2024/01/30 09:51:55;;;;;;;15.23;7.22;;;;;;;10.57;100.00;102488.38;5030453;28;20069;-67
2024/01/30 09:54:23;;;;;;;13.50;7.40;;;;;;;10.64;100.00;102498.00;5029663;28;20037;-67
2024/01/30 09:56:50;;;;;;;9.57;6.65;;;;;;;10.71;100.00;102494.44;5029196;28;20104;-68
2024/01/30 09:59:17;;;;;;;13.25;7.32;;;;;;;10.78;100.00;102491.81;5029430;28;20572;-67
2024/01/30 10:01:45;;;;;;;11.95;7.43;;;;;;;10.82;100.00;102497.06;5029840;28;20069;-67
2024/01/30 10:04:12;;;;;;;10.73;6.88;;;;;;;10.86;100.00;102505.81;5026457;28;20120;-67
2024/01/30 10:06:40;;;;;;;10.90;7.53;;;;;;;10.87;100.00;102505.81;5020880;28;20045;-67
2024/01/30 10:09:09;;;;;;;13.02;7.47;;;;;;;10.88;100.00;102502.28;5027638;28;20186;-67
2024/01/30 10:11:36;;;;;;;14.35;7.30;;;;;;;10.90;100.00;102496.13;5029774;28;20567;-67
2024/01/30 10:14:03;;;;;;;8.85;7.05;;;;;;;10.90;100.00;102504.03;5028676;28;20046;-67
2024/01/30 10:16:30;;;;;;;10.63;7.45;;;;;;;10.91;100.00;102496.09;5028767;28;20052;-67
2024/01/30 10:18:58;;;;;;;12.38;7.15;;;;;;;10.93;100.00;102491.72;5028305;28;20044;-67
2024/01/30 10:21:25;;;;;;;10.77;7.13;;;;;;;10.96;100.00;102507.53;5029005;28;20059;-67
2024/01/30 10:23:52;;;;;;;9.88;7.30;;;;;;;11.00;100.00;102501.34;5029206;28;20501;-68
2024/01/30 10:26:20;;;;;;;12.50;7.30;;;;;;;11.03;100.00;102503.97;5028804;28;20707;-67
2024/01/30 10:28:49;;;;;;;10.73;7.15;;;;;;;11.11;100.00;102503.03;5028901;28;20128;-67
2024/01/30 10:31:19;;;;;;;10.52;6.95;;;;;;;11.16;100.00;102495.97;5028179;28;20061;-67
2024/01/30 10:33:46;;;;;;;11.48;7.28;;;;;;;11.20;100.00;102508.25;5026574;28;20555;-67
2024/01/30 10:36:15;;;;;;;11.45;7.07;;;;;;;11.23;100.00;102508.25;5028315;28;20441;-67
2024/01/30 10:38:51;;;;;;;12.80;7.65;;;;;;;11.30;100.00;102502.03;5027037;28;20064;-67
2024/01/30 10:41:27;;;;;;;10.25;6.80;;;;;;;11.40;100.00;102504.59;5027810;28;20131;-67
2024/01/30 10:44:09;;;;;;;15.07;7.40;;;;;;;11.47;100.00;102515.13;5028474;28;20042;-68
2024/01/30 10:46:39;;;;;;;13.43;7.27;;;;;;;11.49;100.00;102512.50;5014190;28;20519;-67
2024/01/30 10:49:07;;;;;;;10.13;7.10;;;;;;;11.47;100.00;102507.19;5022834;28;20074;-67
2024/01/30 10:51:38;;;;;;;14.10;7.63;;;;;;;11.47;100.00;102508.97;5009773;28;20038;-67
2024/01/30 10:54:07;;;;;;;11.13;7.20;;;;;;;11.46;100.00;102510.72;5024081;28;20071;-68
2024/01/30 10:56:35;;;;;;;11.25;7.88;;;;;;;11.41;100.00;102509.91;5028900;28;20109;-67
2024/01/30 10:59:03;;;;;;;11.77;7.60;;;;;;;11.37;100.00;102512.56;5028638;28;20111;-67
2024/01/30 11:01:31;;;;;;;15.32;7.63;;;;;;;11.37;100.00;102508.16;5028376;28;20049;-67
2024/01/30 11:03:59;;;;;;;14.23;7.93;;;;;;;11.42;100.00;102514.28;5027119;28;20639;-67
2024/01/30 11:06:26;;;;;;;11.60;7.32;;;;;;;11.42;100.00;102519.56;5028126;28;20049;-70
2024/01/30 11:09:07;;;;;;;12.93;8.00;;;;;;;11.47;100.00;102515.13;5020708;28;20069;-68
2024/01/30 11:12:01;;;;;;;11.73;7.65;;;;;;;11.61;100.00;102508.88;5027879;28;20686;-68
2024/01/30 11:14:32;;;;;;;;;;;;;;;11.76;100.00;102498.16;5009551;28;20061;-68
2024/01/30 11:17:00;;;;;;;13.88;7.93;;;;;;;11.89;100.00;102505.97;5027415;28;19920;-68